This is the latest recevied weather packets stored in our database for station/object K3PPP. If no packets are shown the sender has not sent any weather packets the latest 10 day(s).
| Time | Temp. | Humidity | Pressure | Rain* | Wind** | Luminosity | Snow |
|---|---|---|---|---|---|---|---|
| 1777752856 | 6.11° C | 62% | 1013 hPa | 0 mm | - | 198 W/m² | - |
| 1777752553 | 6.67° C | 61% | 1012.9 hPa | 0 mm | - | 188 W/m² | - |
| 1777752248 | 6.67° C | 61% | 1013 hPa | 0 mm | - | 404 W/m² | - |
| 1777751946 | 6.67° C | 61% | 1013 hPa | 0 mm | - | 187 W/m² | - |
| 1777751643 | 6.67° C | 61% | 1013 hPa | 0 mm | - | 287 W/m² | - |
| 1777751339 | 6.11° C | 62% | 1013.2 hPa | 0 mm | - | 403 W/m² | - |
| 1777751036 | 6.67° C | 62% | 1013.1 hPa | 0 mm | - | 160 W/m² | - |
| 1777750732 | 6.67° C | 62% | 1013.2 hPa | 0 mm | - | 198 W/m² | - |
| 1777750429 | 7.78° C | 61% | 1013.5 hPa | 0 mm | - | 290 W/m² | - |
| 1777750125 | 6.11° C | 64% | 1013.3 hPa | 0 mm | - | 523 W/m² | - |
| 1777749822 | 5.56° C | 63% | 1013.5 hPa | 0 mm | - | 225 W/m² | - |
| 1777749519 | 6.11° C | 61% | 1013.6 hPa | 0 mm | - | 112 W/m² | - |
| 1777749217 | 6.67° C | 60% | 1013.5 hPa | 0 mm | - | 131 W/m² | - |
| 1777748914 | 6.67° C | 61% | 1013.6 hPa | 0 mm | - | 234 W/m² | - |
| 1777748612 | 6.67° C | 62% | 1013.7 hPa | 0 mm | - | 465 W/m² | - |
| 1777748307 | 6.11° C | 62% | 1013.9 hPa | 0 mm | - | 275 W/m² | - |
| 1777748003 | 5.56° C | 64% | 1013.7 hPa | 0 mm | - | 159 W/m² | - |
| 1777747700 | 5.56° C | 62% | 1013.8 hPa | 0 mm | - | 99 W/m² | - |
| 1777747396 | 6.67° C | 61% | 1013.8 hPa | 0 mm | - | 156 W/m² | - |
| 1777747092 | 6.67° C | 60% | 1013.9 hPa | 0 mm | - | 259 W/m² | - |
| 1777746789 | 6.67° C | 60% | 1013.7 hPa | 0 mm | - | 323 W/m² | - |
| 1777746484 | 7.22° C | 58% | 1013.8 hPa | 0 mm | - | 359 W/m² | - |
| 1777746179 | 7.22° C | 61% | 1013.7 hPa | 0 mm | - | 308 W/m² | - |
| 1777745876 | 6.67° C | 60% | 1013.8 hPa | 0 mm | - | 526 W/m² | - |
| 1777745575 | 6.67° C | 62% | 1013.9 hPa | 0 mm | - | 397 W/m² | - |
* Rain latest hour (hover to see other rain measurements)
** Current wind speed in m/s (hover to see current wind gust speed)